createdAt,value
2019-05-10T00:00:44.676Z,29.82
2019-05-10T00:03:38.409Z,29.67
2019-05-10T00:06:25.567Z,31.20
2019-05-10T00:09:01.070Z,31.75
2019-05-10T00:11:49.431Z,32.17
2019-05-10T00:14:42.404Z,33.55
2019-05-10T00:17:13.706Z,35.30
2019-05-10T00:19:49.629Z,35.33
2019-05-10T00:22:19.474Z,36.03
2019-05-10T00:25:02.358Z,35.23
2019-05-10T00:27:27.265Z,35.60
2019-05-10T00:29:57.004Z,35.48
2019-05-10T00:32:33.124Z,33.50
2019-05-10T00:35:09.026Z,32.40
2019-05-10T00:37:38.763Z,33.35
2019-05-10T00:40:15.846Z,33.63
2019-05-10T00:42:51.642Z,33.28
2019-05-10T00:45:28.120Z,33.30
2019-05-10T00:48:04.610Z,31.85
2019-05-10T00:50:34.270Z,32.38
2019-05-10T00:53:10.829Z,32.45
2019-05-10T00:55:46.401Z,33.18
2019-05-10T00:58:28.565Z,33.10
2019-05-10T01:00:58.189Z,33.18
2019-05-10T01:03:34.208Z,32.40
2019-05-10T01:06:03.928Z,33.38
2019-05-10T01:08:40.438Z,35.52
2019-05-10T01:11:09.956Z,33.18
2019-05-10T01:13:45.933Z,35.25
2019-05-10T01:16:15.617Z,34.50
2019-05-10T01:18:51.874Z,35.50
2019-05-10T01:21:21.538Z,34.35
2019-05-10T01:23:58.041Z,35.25
2019-05-10T01:26:34.684Z,35.55
2019-05-10T01:29:11.346Z,37.90
2019-05-10T01:31:40.930Z,38.30
2019-05-10T01:34:17.647Z,38.00
2019-05-10T01:36:47.165Z,39.70
2019-05-10T01:39:16.758Z,38.15
2019-05-10T01:41:52.741Z,38.45
2019-05-10T01:44:28.834Z,40.05
2019-05-10T01:47:05.109Z,39.20
2019-05-10T01:49:41.071Z,39.80
2019-05-10T01:52:17.069Z,40.73
2019-05-10T01:54:53.847Z,42.70
2019-05-10T01:57:36.876Z,41.37
2019-05-10T02:00:11.259Z,42.35
2019-05-10T02:02:47.447Z,41.13
2019-05-10T02:05:17.501Z,41.70
2019-05-10T02:07:53.744Z,44.67
2019-05-10T02:10:23.709Z,43.95
2019-05-10T02:13:00.589Z,42.05
2019-05-10T02:15:36.388Z,43.58
2019-05-10T02:18:19.793Z,43.20
2019-05-10T02:20:49.452Z,39.92
2019-05-10T02:23:25.886Z,42.75
2019-05-10T02:26:09.095Z,40.95
2019-05-10T02:28:40.200Z,41.90
2019-05-10T02:31:21.265Z,40.35
2019-05-10T02:33:48.063Z,39.98
2019-05-10T02:36:30.035Z,40.33
2019-05-10T02:38:59.664Z,38.85
2019-05-10T02:41:36.407Z,39.38
2019-05-10T02:44:06.050Z,41.37
2019-05-10T02:46:42.001Z,40.45
2019-05-10T02:49:11.586Z,43.02
2019-05-10T02:51:53.346Z,44.50
2019-05-10T02:54:23.006Z,40.03
2019-05-10T02:57:01.287Z,42.30
2019-05-10T02:59:45.584Z,41.83
2019-05-10T03:02:16.548Z,41.50
2019-05-10T03:04:47.409Z,42.27
2019-05-10T03:07:26.434Z,40.50
2019-05-10T03:09:56.036Z,40.58
2019-05-10T03:12:33.623Z,40.98
2019-05-10T03:15:12.953Z,41.08
2019-05-10T03:17:49.614Z,39.27
2019-05-10T03:20:19.279Z,40.28
2019-05-10T03:22:56.225Z,40.58
2019-05-10T03:25:32.012Z,42.43
2019-05-10T03:28:07.790Z,41.35
2019-05-10T03:30:44.587Z,40.98
2019-05-10T03:33:14.174Z,41.88
2019-05-10T03:35:43.831Z,44.15
2019-05-10T03:38:19.820Z,40.40
2019-05-10T03:40:56.390Z,39.27
2019-05-10T03:43:25.986Z,39.85
2019-05-10T03:46:03.048Z,38.90
2019-05-10T03:48:39.593Z,40.65
2019-05-10T03:51:16.193Z,44.20
2019-05-10T03:53:45.710Z,43.20
2019-05-10T03:56:22.196Z,43.10
2019-05-10T03:58:58.591Z,44.40
2019-05-10T04:01:41.161Z,45.43
2019-05-10T04:04:10.750Z,42.15
2019-05-10T04:06:46.463Z,43.55
2019-05-10T04:09:16.082Z,44.60
2019-05-10T04:11:51.810Z,45.17
2019-05-10T04:14:21.414Z,46.35
2019-05-10T04:16:57.024Z,46.37
2019-05-10T04:19:26.612Z,48.55
2019-05-10T04:22:02.569Z,48.63
2019-05-10T04:24:38.344Z,49.80
2019-05-10T04:27:30.688Z,50.90
2019-05-10T04:29:52.830Z,51.48
2019-05-10T04:32:28.727Z,50.45
2019-05-10T04:35:04.608Z,51.15
2019-05-10T04:37:34.118Z,48.55
2019-05-10T04:40:11.383Z,49.20
2019-05-10T04:42:41.042Z,47.40
2019-05-10T04:45:17.826Z,48.25
2019-05-10T04:48:00.991Z,51.90
2019-05-10T04:50:36.743Z,52.80
2019-05-10T04:53:06.335Z,52.67
2019-05-10T04:55:37.094Z,50.92
2019-05-10T04:58:13.107Z,49.38
2019-05-10T05:00:49.207Z,49.58
2019-05-10T05:03:25.572Z,50.40
2019-05-10T05:05:55.221Z,49.38
2019-05-10T05:08:31.913Z,49.70
2019-05-10T05:11:08.549Z,48.40
2019-05-10T05:13:45.305Z,48.92
2019-05-10T05:16:21.908Z,48.28
2019-05-10T05:18:51.518Z,49.58
2019-05-10T05:21:27.330Z,50.20
2019-05-10T05:23:56.851Z,48.70
2019-05-10T05:26:32.639Z,48.83
2019-05-10T05:29:08.319Z,46.68
2019-05-10T05:31:44.060Z,47.15
2019-05-10T05:34:19.996Z,49.20
2019-05-10T05:36:55.638Z,47.38
2019-05-10T05:39:31.803Z,51.55
2019-05-10T05:42:16.639Z,48.95
2019-05-10T05:44:46.174Z,47.33
2019-05-10T05:47:22.094Z,48.05
2019-05-10T05:49:51.763Z,48.02
2019-05-10T05:52:28.281Z,49.35
2019-05-10T05:54:59.254Z,48.98
2019-05-10T05:57:35.886Z,47.35
2019-05-10T06:00:12.720Z,47.48
2019-05-10T06:02:49.393Z,46.75
2019-05-10T06:05:32.268Z,49.18
2019-05-10T06:07:52.302Z,54.05
2019-05-10T06:10:27.922Z,53.05
2019-05-10T06:12:57.625Z,49.65
2019-05-10T06:15:34.252Z,49.70
2019-05-10T06:18:09.499Z,47.55
2019-05-10T06:20:38.135Z,45.00
2019-05-10T06:23:13.821Z,44.08
2019-05-10T06:25:43.523Z,44.83
2019-05-10T06:28:27.065Z,42.78
2019-05-10T06:30:51.519Z,43.45
2019-05-10T06:33:27.467Z,43.10
2019-05-10T06:35:57.073Z,41.42
2019-05-10T06:38:34.076Z,42.78
2019-05-10T06:41:17.090Z,44.98
2019-05-10T06:43:45.683Z,45.38
2019-05-10T06:46:23.736Z,45.48
2019-05-10T06:49:07.656Z,46.35
2019-05-10T06:51:36.659Z,45.98
2019-05-10T06:54:06.327Z,43.30
2019-05-10T06:56:43.072Z,45.23
2019-05-10T06:59:26.361Z,41.55
2019-05-10T07:02:01.880Z,42.53
2019-05-10T07:04:44.451Z,42.15
2019-05-10T07:07:22.358Z,40.70
2019-05-10T07:10:15.763Z,40.15
2019-05-10T07:12:23.791Z,41.42
2019-05-10T07:15:03.329Z,39.88
2019-05-10T07:17:30.925Z,39.27
2019-05-10T07:20:06.980Z,38.83
2019-05-10T07:22:36.647Z,38.92
2019-05-10T07:25:14.609Z,41.30
2019-05-10T07:27:44.357Z,37.78
2019-05-10T07:30:15.568Z,39.03
2019-05-10T07:32:54.663Z,40.20
2019-05-10T07:35:22.695Z,39.18
2019-05-10T07:37:59.434Z,39.23
2019-05-10T07:40:36.098Z,37.10
2019-05-10T07:43:05.755Z,37.05
2019-05-10T07:45:42.560Z,38.28
2019-05-10T07:48:12.233Z,39.73
2019-05-10T07:50:54.239Z,39.58
2019-05-10T07:53:31.907Z,37.30
2019-05-10T07:56:08.090Z,38.90
2019-05-10T07:58:43.057Z,39.42
2019-05-10T08:01:32.479Z,40.05
2019-05-10T08:04:00.271Z,39.27
2019-05-10T08:06:43.407Z,39.60
2019-05-10T08:09:16.953Z,39.18
2019-05-10T08:11:59.860Z,38.73
2019-05-10T08:14:25.804Z,38.83
2019-05-10T08:16:58.553Z,38.48
2019-05-10T08:19:37.593Z,37.73
2019-05-10T08:22:05.484Z,38.02
2019-05-10T08:24:46.410Z,39.92
2019-05-10T08:27:14.868Z,37.28
2019-05-10T08:30:15.839Z,38.25
2019-05-10T08:32:25.503Z,39.42
2019-05-10T08:34:59.975Z,39.73
2019-05-10T08:37:37.020Z,37.85
2019-05-10T08:40:19.589Z,37.95
2019-05-10T08:43:02.343Z,35.88
2019-05-10T08:45:32.501Z,36.70
2019-05-10T08:48:06.835Z,37.25
2019-05-10T08:50:49.244Z,36.93
2019-05-10T08:53:18.297Z,37.17
2019-05-10T08:55:58.510Z,36.50
2019-05-10T08:58:37.077Z,36.48
2019-05-10T09:01:16.479Z,35.23
2019-05-10T09:03:55.614Z,34.92
2019-05-10T09:06:27.474Z,36.05
2019-05-10T09:09:07.925Z,36.30
2019-05-10T09:11:34.812Z,37.20
2019-05-10T09:14:04.484Z,35.63
2019-05-10T09:16:46.202Z,35.52
2019-05-10T09:19:12.606Z,34.95
2019-05-10T09:21:49.331Z,35.52
2019-05-10T09:24:19.682Z,34.90
2019-05-10T09:26:54.826Z,33.50
2019-05-10T09:29:35.098Z,34.13
2019-05-10T09:32:01.256Z,32.90
2019-05-10T09:34:36.850Z,34.38
2019-05-10T09:37:16.734Z,31.82
2019-05-10T09:39:44.199Z,31.23
2019-05-10T09:42:26.757Z,32.75
2019-05-10T09:44:52.741Z,32.20
2019-05-10T09:47:22.382Z,30.25
2019-05-10T09:49:59.093Z,30.32
2019-05-10T09:52:35.513Z,30.08
2019-05-10T09:55:17.521Z,33.28
2019-05-10T09:57:48.011Z,30.32
2019-05-10T10:00:27.093Z,29.35
2019-05-10T10:03:04.631Z,28.32
2019-05-10T10:05:40.895Z,30.40
2019-05-10T10:08:17.632Z,30.48
2019-05-10T10:11:01.228Z,28.85
2019-05-10T10:13:39.602Z,28.85
2019-05-10T10:16:04.085Z,24.80
2019-05-10T10:18:36.941Z,27.17
2019-05-10T10:21:06.245Z,24.80
2019-05-10T10:23:41.979Z,27.02
2019-05-10T10:26:22.401Z,28.05
2019-05-10T10:28:55.285Z,24.45
2019-05-10T10:31:33.132Z,23.52
2019-05-10T10:34:02.690Z,23.27
2019-05-10T10:36:42.643Z,23.70
2019-05-10T10:39:10.002Z,23.85
2019-05-10T10:41:48.070Z,23.73
2019-05-10T10:44:18.156Z,24.67
2019-05-10T10:46:48.235Z,25.30
2019-05-10T10:49:30.236Z,23.32
2019-05-10T10:52:05.692Z,23.00
2019-05-10T10:54:39.908Z,24.43
2019-05-10T10:57:09.579Z,24.55
2019-05-10T10:59:47.442Z,23.07
2019-05-10T11:02:31.329Z,20.62
2019-05-10T11:04:55.536Z,22.42
2019-05-10T11:07:33.829Z,21.77
2019-05-10T11:10:18.013Z,22.32
2019-05-10T11:12:47.755Z,22.20
2019-05-10T11:15:28.227Z,19.17
2019-05-10T11:17:57.234Z,26.12
2019-05-10T11:20:33.831Z,19.62
2019-05-10T11:23:03.428Z,21.00
2019-05-10T11:25:42.681Z,19.95
2019-05-10T11:28:20.536Z,19.37
2019-05-10T11:30:56.820Z,19.80
2019-05-10T11:33:33.652Z,18.40
2019-05-10T11:36:08.447Z,17.55
2019-05-10T11:38:53.497Z,18.37
2019-05-10T11:41:23.774Z,17.48
2019-05-10T11:43:57.779Z,17.42
2019-05-10T11:46:33.853Z,15.93
2019-05-10T11:49:03.368Z,14.28
2019-05-10T11:51:33.041Z,14.23
2019-05-10T11:54:11.159Z,14.18
2019-05-10T11:56:46.563Z,14.47
2019-05-10T11:59:27.325Z,14.33
2019-05-10T12:02:02.878Z,14.15
2019-05-10T12:04:38.931Z,13.68
2019-05-10T12:07:27.472Z,16.32
2019-05-10T12:10:13.860Z,16.25
2019-05-10T12:12:54.029Z,15.05
2019-05-10T12:15:13.885Z,15.83
2019-05-10T12:20:26.831Z,14.87
2019-05-10T12:22:52.973Z,14.23
2019-05-10T12:26:16.201Z,15.83
2019-05-10T12:26:31.279Z,15.72
2019-05-10T12:28:24.652Z,12.70
2019-05-10T12:31:07.544Z,11.40
2019-05-10T12:33:34.465Z,11.12
2019-05-10T12:36:22.379Z,13.98
2019-05-10T12:38:41.670Z,12.73
2019-05-10T12:41:17.784Z,12.23
2019-05-10T12:43:48.578Z,12.00
2019-05-10T12:46:25.533Z,12.88
2019-05-10T12:48:55.115Z,13.68
2019-05-10T12:51:31.739Z,14.07
2019-05-10T12:54:08.331Z,13.13
2019-05-10T12:56:46.086Z,13.40
2019-05-10T12:59:22.437Z,13.38
2019-05-10T13:02:11.106Z,13.28
2019-05-10T13:04:40.591Z,13.20
2019-05-10T13:07:21.270Z,12.43
2019-05-10T13:10:02.641Z,15.63
2019-05-10T13:12:28.595Z,11.48
2019-05-10T13:15:04.339Z,13.45
2019-05-10T13:17:44.177Z,11.83
2019-05-10T13:20:11.917Z,16.37
2019-05-10T13:22:47.729Z,9.10
2019-05-10T13:25:24.260Z,9.35
2019-05-10T13:27:53.864Z,9.30
2019-05-10T13:30:30.601Z,10.63
2019-05-10T13:33:06.853Z,11.25
2019-05-10T13:35:43.160Z,13.15
2019-05-10T13:38:12.760Z,11.80
2019-05-10T13:40:45.943Z,11.65
2019-05-10T13:43:26.572Z,10.65
2019-05-10T13:45:57.988Z,11.35
2019-05-10T13:48:27.567Z,9.50
2019-05-10T13:50:57.245Z,9.15
2019-05-10T13:53:33.183Z,9.85
2019-05-10T13:56:02.848Z,9.03
2019-05-10T13:58:46.536Z,8.93
2019-05-10T14:01:16.220Z,9.35
2019-05-10T14:03:59.899Z,9.50
2019-05-10T14:06:29.872Z,9.88
2019-05-10T14:09:12.798Z,11.15
2019-05-10T14:11:46.650Z,11.40
2019-05-10T14:14:26.274Z,11.35
2019-05-10T14:16:52.249Z,12.13
2019-05-10T14:19:23.396Z,12.03
2019-05-10T14:21:59.979Z,11.18
2019-05-10T14:24:29.647Z,11.78
2019-05-10T14:27:05.341Z,11.10
2019-05-10T14:29:36.890Z,11.45
2019-05-10T14:32:12.631Z,10.32
2019-05-10T14:34:49.087Z,16.62
2019-05-10T14:37:20.010Z,9.95
2019-05-10T14:39:56.475Z,9.03
2019-05-10T14:42:31.079Z,9.53
2019-05-10T14:45:04.424Z,9.45
2019-05-10T14:47:46.778Z,9.13
2019-05-10T14:50:19.404Z,9.25
2019-05-10T14:52:52.030Z,9.10
2019-05-10T14:55:34.622Z,9.05
2019-05-10T14:57:59.932Z,10.32
2019-05-10T15:00:36.190Z,8.78
2019-05-10T15:03:12.621Z,10.35
2019-05-10T15:05:42.231Z,9.15
2019-05-10T15:08:25.356Z,8.95
2019-05-10T15:11:02.002Z,8.45
2019-05-10T15:13:38.785Z,9.23
2019-05-10T15:16:26.332Z,9.20
2019-05-10T15:18:45.892Z,9.15
2019-05-10T15:21:22.746Z,9.10
2019-05-10T15:23:55.256Z,9.05
2019-05-10T15:26:37.500Z,8.60
2019-05-10T15:29:15.184Z,8.78
2019-05-10T16:18:55.423Z,10.25
2019-05-10T16:21:31.353Z,13.48
2019-05-10T16:24:00.977Z,15.20
2019-05-10T16:26:37.791Z,12.00
2019-05-10T16:29:14.516Z,13.25
2019-05-10T16:31:44.215Z,11.25
2019-05-10T16:34:20.151Z,14.23
2019-05-10T16:36:56.828Z,23.70
2019-05-10T16:39:26.499Z,16.37
2019-05-10T16:42:02.338Z,7.62
2019-05-10T16:44:38.539Z,7.58
2019-05-10T16:47:14.460Z,6.20
2019-05-10T16:49:53.346Z,6.30
2019-05-10T16:52:28.717Z,5.35
2019-05-10T16:55:05.597Z,5.58
2019-05-10T16:57:37.262Z,4.85
2019-05-10T17:00:16.375Z,4.75
2019-05-10T17:02:52.253Z,5.20
2019-05-10T17:05:21.990Z,5.35
2019-05-10T17:07:59.138Z,6.03
2019-05-10T17:10:32.990Z,7.00
2019-05-10T17:13:08.063Z,7.47
2019-05-10T17:15:39.693Z,7.35
2019-05-10T17:18:19.912Z,7.10
2019-05-10T17:20:50.734Z,7.55
2019-05-10T17:23:18.872Z,7.35
2019-05-10T17:25:55.243Z,7.50
2019-05-10T17:28:29.622Z,7.55
2019-05-10T17:31:07.930Z,8.20
2019-05-10T17:33:42.687Z,8.08
2019-05-10T17:36:14.545Z,10.43
2019-05-10T17:38:53.358Z,9.03
2019-05-10T17:41:24.708Z,9.30
2019-05-10T17:44:06.963Z,7.62
2019-05-10T17:46:36.966Z,7.97
2019-05-10T17:49:13.204Z,7.70
2019-05-10T17:51:42.921Z,7.37
2019-05-10T17:54:25.202Z,7.53
2019-05-10T17:56:55.016Z,7.30
2019-05-10T17:59:31.007Z,7.85
2019-05-10T18:02:09.819Z,8.78
2019-05-10T18:04:39.467Z,8.00
2019-05-10T18:07:15.973Z,7.80
2019-05-10T18:09:45.719Z,7.75
2019-05-10T18:12:19.806Z,8.83
2019-05-10T18:14:55.751Z,9.10
2019-05-10T18:17:27.435Z,8.73
2019-05-10T18:20:03.952Z,8.95
2019-05-10T18:22:42.212Z,7.55
2019-05-10T18:25:19.574Z,8.35
2019-05-10T18:27:43.800Z,8.88
2019-05-10T18:30:21.363Z,8.75
2019-05-10T18:32:57.870Z,9.63
2019-05-10T18:35:33.658Z,10.35
2019-05-10T18:38:10.338Z,11.48
2019-05-10T18:40:40.009Z,11.60
2019-05-10T18:43:15.980Z,12.00
2019-05-10T18:45:45.752Z,12.45
2019-05-10T18:48:22.391Z,12.50
2019-05-10T18:50:58.934Z,16.73
2019-05-10T18:53:35.111Z,24.45
2019-05-10T18:56:11.842Z,12.98
2019-05-10T18:58:41.443Z,13.60
2019-05-10T19:36:14.375Z,21.23
2019-05-10T19:38:43.897Z,18.00
2019-05-10T19:41:20.081Z,17.98
2019-05-10T19:43:55.924Z,16.80
2019-05-10T19:46:39.232Z,14.78
2019-05-10T19:49:13.058Z,13.62
2019-05-10T19:51:48.846Z,12.53
2019-05-10T19:54:21.082Z,20.50
2019-05-10T19:57:00.081Z,26.07
2019-05-10T19:59:29.775Z,31.23
2019-05-10T20:02:12.744Z,28.90
2019-05-10T20:04:42.415Z,24.82
2019-05-10T20:07:18.217Z,23.35
2019-05-10T20:09:48.030Z,21.33
2019-05-10T20:12:24.557Z,14.83
2019-05-10T20:14:54.295Z,14.63
2019-05-10T20:18:26.871Z,15.90
2019-05-10T20:21:02.775Z,16.32
2019-05-10T20:23:34.211Z,18.20
2019-05-10T20:26:12.171Z,17.82
2019-05-10T20:28:44.060Z,16.75
2019-05-10T20:31:20.226Z,12.58
2019-05-10T20:33:50.006Z,11.45
2019-05-10T20:36:33.423Z,10.13
2019-05-10T20:39:09.889Z,10.90
2019-05-10T20:41:52.490Z,13.00
2019-05-10T20:44:28.909Z,10.93
2019-05-10T20:47:11.943Z,11.05
2019-05-10T20:49:48.515Z,13.13
2019-05-10T20:52:31.846Z,12.90
2019-05-10T20:55:15.431Z,9.55
2019-05-10T20:57:51.751Z,9.83
2019-05-10T21:00:33.577Z,9.65
2019-05-10T21:03:16.114Z,9.08
2019-05-10T21:05:58.707Z,9.28
2019-05-10T21:08:28.240Z,9.40
2019-05-10T21:11:11.138Z,8.80
2019-05-10T21:13:57.780Z,9.00
2019-05-10T21:16:32.140Z,9.78
2019-05-10T21:19:08.533Z,9.55
2019-05-10T21:21:43.993Z,10.58
2019-05-10T21:24:19.903Z,11.40
2019-05-10T21:26:56.381Z,10.90
2019-05-10T21:29:39.211Z,10.45
2019-05-10T21:32:15.670Z,11.23
2019-05-10T21:37:59.448Z,11.57
2019-05-10T21:40:35.416Z,12.28
2019-05-10T21:43:18.174Z,13.08
2019-05-10T21:45:54.640Z,12.13
2019-05-10T21:48:37.615Z,12.28
2019-05-10T21:51:13.734Z,11.78
2019-05-10T21:53:56.734Z,11.78
2019-05-10T21:56:39.143Z,11.30
2019-05-10T21:59:15.050Z,11.10
2019-05-10T22:01:50.958Z,10.95
2019-05-10T22:04:26.975Z,11.43
2019-05-10T22:07:03.457Z,10.78
2019-05-10T22:09:46.179Z,10.80
2019-05-10T22:12:22.544Z,11.48
2019-05-10T22:15:05.156Z,11.12
2019-05-10T22:17:41.211Z,9.80
2019-05-10T22:20:24.259Z,9.60
2019-05-10T22:23:00.339Z,10.08
2019-05-10T22:25:36.223Z,10.72
2019-05-10T22:28:11.929Z,10.38
2019-05-10T22:30:48.429Z,10.75
2019-05-10T22:33:30.770Z,10.18
2019-05-10T22:36:07.002Z,10.78
2019-05-10T22:39:04.551Z,10.15
2019-05-10T22:41:27.633Z,10.50
2019-05-10T22:44:09.804Z,11.25
2019-05-10T22:46:46.219Z,11.10
2019-05-10T22:49:28.827Z,10.80
2019-05-10T22:52:04.987Z,11.15
2019-05-10T22:54:47.495Z,11.70
2019-05-10T22:57:30.240Z,11.80
2019-05-10T23:00:09.390Z,11.45
2019-05-10T23:02:45.813Z,11.57
2019-05-10T23:05:22.401Z,11.48
2019-05-10T23:07:58.434Z,10.82
2019-05-10T23:10:41.104Z,11.48
2019-05-10T23:13:17.050Z,11.65
2019-05-10T23:15:53.222Z,12.10
2019-05-10T23:18:36.298Z,11.03
2019-05-10T23:21:12.225Z,10.63
2019-05-10T23:23:48.417Z,11.78
2019-05-10T23:26:24.122Z,11.53
2019-05-10T23:29:06.844Z,11.28
2019-05-10T23:31:42.534Z,12.37
2019-05-10T23:34:25.000Z,12.03
2019-05-10T23:37:16.273Z,12.80
2019-05-10T23:39:52.227Z,12.50
2019-05-10T23:42:28.110Z,12.68
2019-05-10T23:45:10.581Z,13.00
2019-05-10T23:47:46.131Z,12.03
2019-05-10T23:50:28.683Z,12.53
2019-05-10T23:53:05.032Z,12.30
2019-05-10T23:55:47.984Z,13.50
2019-05-10T23:58:23.683Z,12.65
